sensor_id;sensor_type;location;lat;lon;timestamp;pressure;altitude;pressure_sealevel;temperature;humidity
13050;BME280;6591;51.446;5.404;2023-04-05T00:00:27;102161.06;;;8.34;39.02
13050;BME280;6591;51.446;5.404;2023-04-05T00:02:57;102153.19;;;8.30;39.04
13050;BME280;6591;51.446;5.404;2023-04-05T00:05:27;102151.47;;;8.24;39.33
13050;BME280;6591;51.446;5.404;2023-04-05T00:08:00;102157.66;;;8.22;39.41
13050;BME280;6591;51.446;5.404;2023-04-05T00:10:29;102164.78;;;8.20;39.50
13050;BME280;6591;51.446;5.404;2023-04-05T00:12:57;102159.50;;;8.17;40.29
13050;BME280;6591;51.446;5.404;2023-04-05T00:15:28;102164.84;;;8.14;39.82
13050;BME280;6591;51.446;5.404;2023-04-05T00:18:02;102171.03;;;8.13;39.42
13050;BME280;6591;51.446;5.404;2023-04-05T00:20:29;102161.38;;;8.10;39.92
13050;BME280;6591;51.446;5.404;2023-04-05T00:22:56;102159.63;;;8.09;40.26
13050;BME280;6591;51.446;5.404;2023-04-05T00:25:24;102156.13;;;8.07;40.04
13050;BME280;6591;51.446;5.404;2023-04-05T00:27:51;102156.16;;;8.05;40.49
13050;BME280;6591;51.446;5.404;2023-04-05T00:30:18;102164.09;;;8.04;40.34
13050;BME280;6591;51.446;5.404;2023-04-05T00:32:49;102151.78;;;8.01;39.72
13050;BME280;6591;51.446;5.404;2023-04-05T00:35:17;102154.47;;;7.98;39.74
13050;BME280;6591;51.446;5.404;2023-04-05T00:37:44;102159.81;;;7.95;39.83
13050;BME280;6591;51.446;5.404;2023-04-05T00:40:11;102150.16;;;7.91;40.53
13050;BME280;6591;51.446;5.404;2023-04-05T00:42:38;102146.69;;;7.86;40.40
13050;BME280;6591;51.446;5.404;2023-04-05T00:45:06;102145.88;;;7.81;40.07
13050;BME280;6591;51.446;5.404;2023-04-05T00:47:33;102148.59;;;7.77;40.90
13050;BME280;6591;51.446;5.404;2023-04-05T00:50:01;102147.78;;;7.72;40.26
13050;BME280;6591;51.446;5.404;2023-04-05T00:52:28;102141.69;;;7.66;40.49
13050;BME280;6591;51.446;5.404;2023-04-05T00:54:57;102145.28;;;7.61;40.55
13050;BME280;6591;51.446;5.404;2023-04-05T00:57:24;102141.81;;;7.57;40.88
13050;BME280;6591;51.446;5.404;2023-04-05T00:59:52;102135.69;;;7.52;40.41
13050;BME280;6591;51.446;5.404;2023-04-05T01:02:34;102140.19;;;7.44;40.93
13050;BME280;6591;51.446;5.404;2023-04-05T01:07:58;102150.91;;;7.32;41.18
13050;BME280;6591;51.446;5.404;2023-04-05T01:10:38;102153.56;;;7.28;40.71
13050;BME280;6591;51.446;5.404;2023-04-05T01:13:08;102151.84;;;7.23;40.64
13050;BME280;6591;51.446;5.404;2023-04-05T01:15:35;102147.50;;;7.18;41.08
13050;BME280;6591;51.446;5.404;2023-04-05T01:18:02;102149.31;;;7.14;40.91
13050;BME280;6591;51.446;5.404;2023-04-05T01:20:36;102143.22;;;7.09;41.31
13050;BME280;6591;51.446;5.404;2023-04-05T01:23:27;102149.41;;;7.04;40.88
13050;BME280;6591;51.446;5.404;2023-04-05T01:26:06;102140.63;;;7.03;40.95
13050;BME280;6591;51.446;5.404;2023-04-05T01:32:00;102130.16;;;6.93;41.72
13050;BME280;6591;51.446;5.404;2023-04-05T01:34:49;102128.44;;;6.89;41.33
13050;BME280;6591;51.446;5.404;2023-04-05T01:37:22;102126.69;;;6.86;41.63
13050;BME280;6591;51.446;5.404;2023-04-05T01:39:52;102125.84;;;6.84;41.26
13050;BME280;6591;51.446;5.404;2023-04-05T01:42:24;102120.63;;;6.79;41.85
13050;BME280;6591;51.446;5.404;2023-04-05T01:44:55;102126.78;;;6.75;41.48
13050;BME280;6591;51.446;5.404;2023-04-05T01:47:23;102133.84;;;6.76;41.88
13050;BME280;6591;51.446;5.404;2023-04-05T01:49:50;102121.56;;;6.72;41.50
13050;BME280;6591;51.446;5.404;2023-04-05T01:52:17;102118.97;;;6.69;41.69
13050;BME280;6591;51.446;5.404;2023-04-05T01:54:44;102113.69;;;6.68;42.11
13050;BME280;6591;51.446;5.404;2023-04-05T01:57:11;102114.56;;;6.68;41.80
13050;BME280;6591;51.446;5.404;2023-04-05T01:59:38;102112.81;;;6.66;41.76
13050;BME280;6591;51.446;5.404;2023-04-05T02:02:05;102112.84;;;6.64;41.97
13050;BME280;6591;51.446;5.404;2023-04-05T02:04:34;102112.84;;;6.63;41.75
13050;BME280;6591;51.446;5.404;2023-04-05T02:07:01;102109.34;;;6.62;41.78
13050;BME280;6591;51.446;5.404;2023-04-05T02:09:29;102106.69;;;6.62;42.46
13050;BME280;6591;51.446;5.404;2023-04-05T02:11:56;102105.81;;;6.60;42.23
13050;BME280;6591;51.446;5.404;2023-04-05T02:14:24;102105.81;;;6.60;41.48
13050;BME280;6591;51.446;5.404;2023-04-05T02:16:52;102111.09;;;6.60;42.26
13050;BME280;6591;51.446;5.404;2023-04-05T02:19:23;102104.09;;;6.56;42.31
13050;BME280;6591;51.446;5.404;2023-04-05T02:21:52;102106.75;;;6.55;42.20
13050;BME280;6591;51.446;5.404;2023-04-05T02:24:22;102105.03;;;6.52;42.41
13050;BME280;6591;51.446;5.404;2023-04-05T02:26:49;102100.63;;;6.50;42.14
13050;BME280;6591;51.446;5.404;2023-04-05T02:29:17;102096.28;;;6.47;42.24
13050;BME280;6591;51.446;5.404;2023-04-05T02:31:44;102093.66;;;6.44;42.56
13050;BME280;6591;51.446;5.404;2023-04-05T02:34:12;102097.19;;;6.40;42.65
13050;BME280;6591;51.446;5.404;2023-04-05T02:36:39;102099.00;;;6.38;42.16
13050;BME280;6591;51.446;5.404;2023-04-05T02:39:08;102099.00;;;6.35;42.74
13050;BME280;6591;51.446;5.404;2023-04-05T02:41:37;102094.66;;;6.31;42.73
13050;BME280;6591;51.446;5.404;2023-04-05T02:44:04;102087.66;;;6.27;42.43
13050;BME280;6591;51.446;5.404;2023-04-05T02:46:31;102099.06;;;6.26;42.77
13050;BME280;6591;51.446;5.404;2023-04-05T02:48:59;102089.41;;;6.25;43.07
13050;BME280;6591;51.446;5.404;2023-04-05T02:51:28;102096.44;;;6.23;43.06
13050;BME280;6591;51.446;5.404;2023-04-05T02:53:56;102095.59;;;6.21;42.83
13050;BME280;6591;51.446;5.404;2023-04-05T02:56:24;102093.84;;;6.20;42.37
13050;BME280;6591;51.446;5.404;2023-04-05T02:58:51;102091.25;;;6.17;42.51
13050;BME280;6591;51.446;5.404;2023-04-05T03:01:23;102096.53;;;6.15;42.59
13050;BME280;6591;51.446;5.404;2023-04-05T03:03:50;102091.25;;;6.14;42.69
13050;BME280;6591;51.446;5.404;2023-04-05T03:06:17;102086.88;;;6.11;43.15
13050;BME280;6591;51.446;5.404;2023-04-05T03:08:48;102080.75;;;6.09;42.91
13050;BME280;6591;51.446;5.404;2023-04-05T03:11:22;102078.13;;;6.06;42.44
13050;BME280;6591;51.446;5.404;2023-04-05T03:13:54;102074.63;;;6.04;43.08
13050;BME280;6591;51.446;5.404;2023-04-05T03:16:35;102077.28;;;6.01;42.83
13050;BME280;6591;51.446;5.404;2023-04-05T03:19:14;102073.78;;;5.97;42.95
13050;BME280;6591;51.446;5.404;2023-04-05T03:21:44;102063.25;;;5.97;42.65
13050;BME280;6591;51.446;5.404;2023-04-05T03:24:23;102065.91;;;5.96;43.22
13050;BME280;6591;51.446;5.404;2023-04-05T03:26:51;102058.88;;;5.97;43.26
13050;BME280;6591;51.446;5.404;2023-04-05T03:29:22;102061.50;;;5.93;43.30
13050;BME280;6591;51.446;5.404;2023-04-05T03:31:50;102062.41;;;5.92;43.27
13050;BME280;6591;51.446;5.404;2023-04-05T03:34:21;102057.13;;;5.92;42.62
13050;BME280;6591;51.446;5.404;2023-04-05T03:36:49;102060.66;;;5.90;43.03
13050;BME280;6591;51.446;5.404;2023-04-05T03:39:34;102058.03;;;5.87;43.47
13050;BME280;6591;51.446;5.404;2023-04-05T03:42:02;102060.66;;;5.85;43.30
13050;BME280;6591;51.446;5.404;2023-04-05T03:44:29;102056.28;;;5.83;42.95
13050;BME280;6591;51.446;5.404;2023-04-05T03:46:57;102055.41;;;5.82;43.27
13050;BME280;6591;51.446;5.404;2023-04-05T03:49:24;102053.66;;;5.81;43.15
13050;BME280;6591;51.446;5.404;2023-04-05T03:51:52;102058.06;;;5.81;44.05
13050;BME280;6591;51.446;5.404;2023-04-05T03:54:20;102054.56;;;5.79;43.37
13050;BME280;6591;51.446;5.404;2023-04-05T03:56:49;102056.31;;;5.78;43.70
13050;BME280;6591;51.446;5.404;2023-04-05T03:59:17;102052.78;;;5.76;43.17
13050;BME280;6591;51.446;5.404;2023-04-05T04:01:44;102053.72;;;5.75;43.67
13050;BME280;6591;51.446;5.404;2023-04-05T04:04:13;102045.81;;;5.72;43.01
13050;BME280;6591;51.446;5.404;2023-04-05T04:06:45;102035.25;;;5.71;43.72
13050;BME280;6591;51.446;5.404;2023-04-05T04:09:14;102044.09;;;5.70;43.99
13050;BME280;6591;51.446;5.404;2023-04-05T04:11:41;102039.69;;;5.67;43.25
13050;BME280;6591;51.446;5.404;2023-04-05T04:14:09;102042.34;;;5.64;43.21
13050;BME280;6591;51.446;5.404;2023-04-05T04:16:56;102037.97;;;5.60;43.45
13050;BME280;6591;51.446;5.404;2023-04-05T04:20:03;102040.63;;;5.57;43.65
13050;BME280;6591;51.446;5.404;2023-04-05T04:22:55;102038.03;;;5.54;43.53
13050;BME280;6591;51.446;5.404;2023-04-05T04:25:50;102038.03;;;5.51;43.58
13050;BME280;6591;51.446;5.404;2023-04-05T04:28:39;102032.78;;;5.48;43.89
13050;BME280;6591;51.446;5.404;2023-04-05T04:31:28;102041.56;;;5.47;43.96
13050;BME280;6591;51.446;5.404;2023-04-05T04:34:20;102038.03;;;5.45;44.27
13050;BME280;6591;51.446;5.404;2023-04-05T04:37:06;102038.97;;;5.44;43.92
13050;BME280;6591;51.446;5.404;2023-04-05T04:39:51;102044.19;;;5.45;44.35
13050;BME280;6591;51.446;5.404;2023-04-05T04:42:35;102042.44;;;5.44;44.23
13050;BME280;6591;51.446;5.404;2023-04-05T04:45:27;102039.81;;;5.44;44.69
13050;BME280;6591;51.446;5.404;2023-04-05T04:48:19;102035.44;;;5.43;43.91
13050;BME280;6591;51.446;5.404;2023-04-05T04:50:55;102042.44;;;5.44;44.28
13050;BME280;6591;51.446;5.404;2023-04-05T04:53:24;102039.81;;;5.46;44.79
13050;BME280;6591;51.446;5.404;2023-04-05T04:55:51;102036.28;;;5.47;43.86
13050;BME280;6591;51.446;5.404;2023-04-05T04:58:18;102035.41;;;5.49;44.26
13050;BME280;6591;51.446;5.404;2023-04-05T05:00:53;102031.88;;;5.52;44.38
13050;BME280;6591;51.446;5.404;2023-04-05T05:03:24;102035.38;;;5.54;44.28
13050;BME280;6591;51.446;5.404;2023-04-05T05:05:50;102032.72;;;5.57;44.87
13050;BME280;6591;51.446;5.404;2023-04-05T05:08:23;102033.59;;;5.59;44.54
13050;BME280;6591;51.446;5.404;2023-04-05T05:10:51;102031.81;;;5.61;44.57
13050;BME280;6591;51.446;5.404;2023-04-05T05:13:20;102030.06;;;5.63;44.60
13050;BME280;6591;51.446;5.404;2023-04-05T05:15:47;102038.84;;;5.65;44.94
13050;BME280;6591;51.446;5.404;2023-04-05T05:18:14;102037.94;;;5.69;44.64
13050;BME280;6591;51.446;5.404;2023-04-05T05:20:42;102032.63;;;5.72;44.77
13050;BME280;6591;51.446;5.404;2023-04-05T05:23:09;102033.47;;;5.76;44.90
13050;BME280;6591;51.446;5.404;2023-04-05T05:25:36;102033.47;;;5.80;44.77
13050;BME280;6591;51.446;5.404;2023-04-05T05:28:04;102033.44;;;5.83;45.48
13050;BME280;6591;51.446;5.404;2023-04-05T05:30:31;102032.56;;;5.86;45.28
13050;BME280;6591;51.446;5.404;2023-04-05T05:32:59;102032.56;;;5.90;44.88
13050;BME280;6591;51.446;5.404;2023-04-05T05:35:27;102034.28;;;5.94;45.13
13050;BME280;6591;51.446;5.404;2023-04-05T05:37:54;102029.84;;;5.98;45.06
13050;BME280;6591;51.446;5.404;2023-04-05T05:40:21;102028.94;;;6.02;45.41
13050;BME280;6591;51.446;5.404;2023-04-05T05:42:48;102021.03;;;6.07;45.46
13050;BME280;6591;51.446;5.404;2023-04-05T05:45:15;102020.97;;;6.10;45.27
13050;BME280;6591;51.446;5.404;2023-04-05T05:47:42;102024.47;;;6.15;45.07
13050;BME280;6591;51.446;5.404;2023-04-05T05:50:09;102033.19;;;6.21;44.67
13050;BME280;6591;51.446;5.404;2023-04-05T05:52:37;102033.16;;;6.26;45.28
13050;BME280;6591;51.446;5.404;2023-04-05T05:55:04;102030.47;;;6.30;45.43
13050;BME280;6591;51.446;5.404;2023-04-05T05:57:32;102028.63;;;6.38;45.21
13050;BME280;6591;51.446;5.404;2023-04-05T05:59:58;102030.34;;;6.44;44.81
13050;BME280;6591;51.446;5.404;2023-04-05T06:02:25;102032.91;;;6.52;45.45
13050;BME280;6591;51.446;5.404;2023-04-05T06:04:53;102037.28;;;6.57;45.79
13050;BME280;6591;51.446;5.404;2023-04-05T06:07:20;102042.44;;;6.66;45.70
13050;BME280;6591;51.446;5.404;2023-04-05T06:09:47;102042.38;;;6.74;45.26
13050;BME280;6591;51.446;5.404;2023-04-05T06:12:14;102045.78;;;6.84;45.26
13050;BME280;6591;51.446;5.404;2023-04-05T06:14:41;102037.75;;;6.94;45.27
13050;BME280;6591;51.446;5.404;2023-04-05T06:17:08;102036.75;;;7.06;45.64
13050;BME280;6591;51.446;5.404;2023-04-05T06:19:35;102044.50;;;7.18;44.92
13050;BME280;6591;51.446;5.404;2023-04-05T06:22:02;102043.50;;;7.31;45.33
13050;BME280;6591;51.446;5.404;2023-04-05T06:24:29;102045.06;;;7.44;45.35
13050;BME280;6591;51.446;5.404;2023-04-05T06:26:58;102039.56;;;7.59;44.70
13050;BME280;6591;51.446;5.404;2023-04-05T06:29:25;102029.69;;;7.74;45.29
13050;BME280;6591;51.446;5.404;2023-04-05T06:31:54;102030.31;;;7.91;45.08
13050;BME280;6591;51.446;5.404;2023-04-05T06:34:21;102023.00;;;8.06;45.13
13050;BME280;6591;51.446;5.404;2023-04-05T06:36:48;102021.84;;;8.24;45.40
13050;BME280;6591;51.446;5.404;2023-04-05T06:39:15;102026.00;;;8.40;44.90
13050;BME280;6591;51.446;5.404;2023-04-05T06:41:42;102029.25;;;8.58;45.17
13050;BME280;6591;51.446;5.404;2023-04-05T06:44:09;102031.56;;;8.74;44.55
13050;BME280;6591;51.446;5.404;2023-04-05T06:46:37;102025.13;;;8.89;45.08
13050;BME280;6591;51.446;5.404;2023-04-05T06:49:04;102026.56;;;9.05;44.56
13050;BME280;6591;51.446;5.404;2023-04-05T06:51:31;102027.97;;;9.21;44.92
13050;BME280;6591;51.446;5.404;2023-04-05T06:53:58;102027.63;;;9.38;44.51
13050;BME280;6591;51.446;5.404;2023-04-05T06:56:25;102026.41;;;9.54;44.23
13050;BME280;6591;51.446;5.404;2023-04-05T06:58:53;102025.13;;;9.72;44.35
13050;BME280;6591;51.446;5.404;2023-04-05T07:01:21;102022.91;;;9.91;44.26
13050;BME280;6591;51.446;5.404;2023-04-05T07:03:52;102032.22;;;10.08;44.28
13050;BME280;6591;51.446;5.404;2023-04-05T07:06:19;102020.38;;;10.23;44.31
13050;BME280;6591;51.446;5.404;2023-04-05T07:08:47;102034.88;;;10.45;43.87
13050;BME280;6591;51.446;5.404;2023-04-05T07:11:14;102036.09;;;10.66;43.91
13050;BME280;6591;51.446;5.404;2023-04-05T07:13:42;102032.94;;;10.84;43.63
13050;BME280;6591;51.446;5.404;2023-04-05T07:16:09;102032.34;;;11.05;43.85
13050;BME280;6591;51.446;5.404;2023-04-05T07:18:36;102037.03;;;11.27;43.56
13050;BME280;6591;51.446;5.404;2023-04-05T07:21:03;102022.22;;;11.49;43.57
13050;BME280;6591;51.446;5.404;2023-04-05T07:23:30;102022.38;;;11.72;43.22
13050;BME280;6591;51.446;5.404;2023-04-05T07:26:02;102025.34;;;11.93;42.66
13050;BME280;6591;51.446;5.404;2023-04-05T07:28:34;102021.88;;;12.17;42.49
13050;BME280;6591;51.446;5.404;2023-04-05T07:31:04;102026.34;;;12.41;42.68
13050;BME280;6591;51.446;5.404;2023-04-05T07:33:32;102021.97;;;12.66;42.08
13050;BME280;6591;51.446;5.404;2023-04-05T07:36:00;102019.31;;;12.90;42.53
13050;BME280;6591;51.446;5.404;2023-04-05T07:38:29;102022.00;;;13.14;41.94
13050;BME280;6591;51.446;5.404;2023-04-05T07:40:56;102019.31;;;13.39;41.76
13050;BME280;6591;51.446;5.404;2023-04-05T07:43:24;102018.34;;;13.64;41.80
13050;BME280;6591;51.446;5.404;2023-04-05T07:46:00;102015.66;;;13.87;41.52
13050;BME280;6591;51.446;5.404;2023-04-05T07:48:27;102014.66;;;14.11;41.25
13050;BME280;6591;51.446;5.404;2023-04-05T07:50:55;102018.16;;;14.33;41.24
13050;BME280;6591;51.446;5.404;2023-04-05T07:53:22;102021.63;;;14.57;40.72
13050;BME280;6591;51.446;5.404;2023-04-05T07:55:49;102017.03;;;14.81;40.89
13050;BME280;6591;51.446;5.404;2023-04-05T07:58:16;102017.69;;;15.06;40.72
13050;BME280;6591;51.446;5.404;2023-04-05T08:00:43;102010.38;;;15.28;40.64
13050;BME280;6591;51.446;5.404;2023-04-05T08:03:10;102005.00;;;15.49;40.39
13050;BME280;6591;51.446;5.404;2023-04-05T08:05:37;101999.31;;;15.75;40.44
13050;BME280;6591;51.446;5.404;2023-04-05T08:08:04;102004.41;;;15.98;40.16
13050;BME280;6591;51.446;5.404;2023-04-05T08:10:38;102005.78;;;16.24;39.86
13050;BME280;6591;51.446;5.404;2023-04-05T08:13:06;102003.69;;;16.48;39.66
13050;BME280;6591;51.446;5.404;2023-04-05T08:15:34;102008.75;;;16.71;39.47
13050;BME280;6591;51.446;5.404;2023-04-05T08:18:01;102002.09;;;16.96;39.39
13050;BME280;6591;51.446;5.404;2023-04-05T08:20:28;102003.59;;;17.17;39.16
13050;BME280;6591;51.446;5.404;2023-04-05T08:22:55;102003.41;;;17.37;39.00
13050;BME280;6591;51.446;5.404;2023-04-05T08:25:22;102000.56;;;17.56;38.52
13050;BME280;6591;51.446;5.404;2023-04-05T08:27:50;102005.63;;;17.77;38.57
13050;BME280;6591;51.446;5.404;2023-04-05T08:30:17;102011.53;;;18.00;38.30
13050;BME280;6591;51.446;5.404;2023-04-05T08:32:45;102012.00;;;18.22;38.08
13050;BME280;6591;51.446;5.404;2023-04-05T08:35:15;102002.66;;;18.43;37.84
13050;BME280;6591;51.446;5.404;2023-04-05T08:37:42;101994.28;;;18.63;37.68
13050;BME280;6591;51.446;5.404;2023-04-05T08:40:11;102002.41;;;18.78;36.71
13050;BME280;6591;51.446;5.404;2023-04-05T08:42:54;101998.28;;;18.72;35.92
13050;BME280;6591;51.446;5.404;2023-04-05T08:45:23;101997.19;;;18.75;35.89
13050;BME280;6591;51.446;5.404;2023-04-05T08:47:52;101988.38;;;18.73;35.46
13050;BME280;6591;51.446;5.404;2023-04-05T08:50:22;101994.34;;;18.78;35.52
13050;BME280;6591;51.446;5.404;2023-04-05T08:52:50;102002.13;;;18.82;35.03
13050;BME280;6591;51.446;5.404;2023-04-05T08:55:18;101993.97;;;18.84;35.06
13050;BME280;6591;51.446;5.404;2023-04-05T08:57:52;102000.31;;;18.83;34.48
13050;BME280;6591;51.446;5.404;2023-04-05T09:00:20;101996.47;;;18.87;34.68
13050;BME280;6591;51.446;5.404;2023-04-05T09:02:53;101994.63;;;18.87;33.88
13050;BME280;6591;51.446;5.404;2023-04-05T09:05:23;101993.78;;;18.87;34.15
13050;BME280;6591;51.446;5.404;2023-04-05T09:07:52;101988.19;;;18.90;34.29
13050;BME280;6591;51.446;5.404;2023-04-05T09:10:21;101984.16;;;18.97;34.44
13050;BME280;6591;51.446;5.404;2023-04-05T09:12:50;101985.16;;;19.10;33.73
13050;BME280;6591;51.446;5.404;2023-04-05T09:15:20;101978.59;;;19.14;32.71
13050;BME280;6591;51.446;5.404;2023-04-05T09:17:51;101977.25;;;19.07;32.58
13050;BME280;6591;51.446;5.404;2023-04-05T09:20:18;101975.78;;;19.01;32.39
13050;BME280;6591;51.446;5.404;2023-04-05T09:22:47;101982.44;;;18.96;32.43
13050;BME280;6591;51.446;5.404;2023-04-05T09:25:37;101978.88;;;18.81;31.80
13050;BME280;6591;51.446;5.404;2023-04-05T09:28:05;101981.56;;;18.81;32.12
13050;BME280;6591;51.446;5.404;2023-04-05T09:30:34;101980.69;;;18.81;32.45
13050;BME280;6591;51.446;5.404;2023-04-05T09:33:07;101967.81;;;18.86;32.08
13050;BME280;6591;51.446;5.404;2023-04-05T09:35:36;101972.34;;;18.99;32.18
13050;BME280;6591;51.446;5.404;2023-04-05T09:38:04;101970.59;;;19.13;32.19
13050;BME280;6591;51.446;5.404;2023-04-05T09:40:45;101975.09;;;19.26;32.18
13050;BME280;6591;51.446;5.404;2023-04-05T09:43:40;101969.72;;;19.40;31.80
13050;BME280;6591;51.446;5.404;2023-04-05T09:46:31;101972.44;;;19.55;32.20
13050;BME280;6591;51.446;5.404;2023-04-05T09:49:00;101973.16;;;19.71;31.42
13050;BME280;6591;51.446;5.404;2023-04-05T09:51:35;101963.03;;;19.74;30.89
13050;BME280;6591;51.446;5.404;2023-04-05T09:54:09;101966.50;;;19.76;31.01
13050;BME280;6591;51.446;5.404;2023-04-05T09:56:39;101965.44;;;19.79;30.64
13050;BME280;6591;51.446;5.404;2023-04-05T09:59:10;101963.72;;;19.78;30.90
13050;BME280;6591;51.446;5.404;2023-04-05T10:01:42;101961.22;;;19.75;30.04
13050;BME280;6591;51.446;5.404;2023-04-05T10:04:10;101961.03;;;19.78;30.45
13050;BME280;6591;51.446;5.404;2023-04-05T10:06:39;101958.59;;;19.87;30.56
13050;BME280;6591;51.446;5.404;2023-04-05T10:09:10;101952.47;;;19.98;30.35
13050;BME280;6591;51.446;5.404;2023-04-05T10:11:38;101953.38;;;20.11;30.06
13050;BME280;6591;51.446;5.404;2023-04-05T10:14:07;101944.53;;;20.22;30.19
13050;BME280;6591;51.446;5.404;2023-04-05T10:17:03;101950.03;;;20.35;29.73
13050;BME280;6591;51.446;5.404;2023-04-05T10:20:13;101935.56;;;20.48;30.63
13050;BME280;6591;51.446;5.404;2023-04-05T10:23:03;101934.28;;;20.79;30.45
13050;BME280;6591;51.446;5.404;2023-04-05T10:30:51;101930.53;;;21.80;30.07
13050;BME280;6591;51.446;5.404;2023-04-05T10:33:34;101928.06;;;22.01;28.34
13050;BME280;6591;51.446;5.404;2023-04-05T10:36:32;101931.41;;;22.04;28.63
13050;BME280;6591;51.446;5.404;2023-04-05T10:39:16;101925.63;;;21.98;27.85
13050;BME280;6591;51.446;5.404;2023-04-05T10:41:53;101926.16;;;21.90;27.68
13050;BME280;6591;51.446;5.404;2023-04-05T10:44:23;101922.06;;;21.84;28.02
13050;BME280;6591;51.446;5.404;2023-04-05T10:46:54;101927.81;;;21.80;27.93
13050;BME280;6591;51.446;5.404;2023-04-05T10:49:36;101926.94;;;21.79;27.51
13050;BME280;6591;51.446;5.404;2023-04-05T10:52:05;101930.41;;;21.81;27.43
13050;BME280;6591;51.446;5.404;2023-04-05T10:54:34;101922.31;;;21.81;27.34
13050;BME280;6591;51.446;5.404;2023-04-05T10:57:08;101919.47;;;21.83;27.15
13050;BME280;6591;51.446;5.404;2023-04-05T10:59:42;101910.78;;;21.90;27.33
13050;BME280;6591;51.446;5.404;2023-04-05T11:02:13;101910.88;;;22.02;27.35
13050;BME280;6591;51.446;5.404;2023-04-05T11:04:42;101909.69;;;22.17;27.45
13050;BME280;6591;51.446;5.404;2023-04-05T11:07:15;101898.44;;;22.34;27.60
13050;BME280;6591;51.446;5.404;2023-04-05T11:10:03;101888.38;;;22.58;27.48
13050;BME280;6591;51.446;5.404;2023-04-05T11:18:19;101887.19;;;23.18;27.05
13050;BME280;6591;51.446;5.404;2023-04-05T11:20:53;101883.94;;;23.46;27.30
13050;BME280;6591;51.446;5.404;2023-04-05T11:23:31;101882.13;;;23.79;27.63
13050;BME280;6591;51.446;5.404;2023-04-05T11:26:05;101884.94;;;24.09;27.02
13050;BME280;6591;51.446;5.404;2023-04-05T11:28:37;101886.94;;;24.39;26.84
13050;BME280;6591;51.446;5.404;2023-04-05T11:31:15;101880.03;;;24.65;26.52
13050;BME280;6591;51.446;5.404;2023-04-05T11:36:42;101871.00;;;25.06;25.50
13050;BME280;6591;51.446;5.404;2023-04-05T11:42:05;101870.16;;;25.15;25.04
13050;BME280;6591;51.446;5.404;2023-04-05T11:44:41;101863.81;;;25.05;24.91
13050;BME280;6591;51.446;5.404;2023-04-05T11:47:09;101860.38;;;25.03;25.74
13050;BME280;6591;51.446;5.404;2023-04-05T11:49:40;101858.09;;;25.08;25.66
13050;BME280;6591;51.446;5.404;2023-04-05T11:52:16;101853.28;;;25.21;25.60
13050;BME280;6591;51.446;5.404;2023-04-05T11:54:44;101853.03;;;25.44;25.61
13050;BME280;6591;51.446;5.404;2023-04-05T11:57:17;101848.78;;;25.60;25.12
13050;BME280;6591;51.446;5.404;2023-04-05T11:59:44;101849.94;;;25.67;25.19
13050;BME280;6591;51.446;5.404;2023-04-05T12:02:12;101846.78;;;25.72;24.78
13050;BME280;6591;51.446;5.404;2023-04-05T12:04:39;101839.06;;;25.77;24.95
13050;BME280;6591;51.446;5.404;2023-04-05T12:07:18;101838.06;;;25.88;25.07
13050;BME280;6591;51.446;5.404;2023-04-05T12:10:16;101827.56;;;26.02;25.16
13050;BME280;6591;51.446;5.404;2023-04-05T12:12:43;101821.53;;;26.18;24.58
13050;BME280;6591;51.446;5.404;2023-04-05T12:15:13;101823.09;;;26.21;24.48
13050;BME280;6591;51.446;5.404;2023-04-05T12:17:49;101828.41;;;26.12;23.38
13050;BME280;6591;51.446;5.404;2023-04-05T12:20:22;101820.56;;;26.00;23.84
13050;BME280;6591;51.446;5.404;2023-04-05T12:22:55;101822.72;;;25.87;24.03
13050;BME280;6591;51.446;5.404;2023-04-05T12:25:23;101819.56;;;25.72;23.60
13050;BME280;6591;51.446;5.404;2023-04-05T12:27:50;101817.81;;;25.52;23.50
13050;BME280;6591;51.446;5.404;2023-04-05T12:30:22;101815.50;;;25.28;23.41
13050;BME280;6591;51.446;5.404;2023-04-05T12:32:54;101812.16;;;25.05;23.71
13050;BME280;6591;51.446;5.404;2023-04-05T12:35:28;101813.88;;;24.76;23.11
13050;BME280;6591;51.446;5.404;2023-04-05T12:38:02;101813.25;;;24.53;23.47
13050;BME280;6591;51.446;5.404;2023-04-05T12:40:34;101807.22;;;24.29;23.26
13050;BME280;6591;51.446;5.404;2023-04-05T12:43:06;101798.94;;;24.10;23.51
13050;BME280;6591;51.446;5.404;2023-04-05T12:45:35;101799.94;;;24.08;23.78
13050;BME280;6591;51.446;5.404;2023-04-05T12:48:19;101800.34;;;24.04;23.57
13050;BME280;6591;51.446;5.404;2023-04-05T12:50:48;101797.75;;;24.02;23.49
13050;BME280;6591;51.446;5.404;2023-04-05T12:53:22;101797.69;;;23.93;23.51
13050;BME280;6591;51.446;5.404;2023-04-05T12:55:54;101788.22;;;23.87;23.71
13050;BME280;6591;51.446;5.404;2023-04-05T12:58:35;101791.34;;;23.83;22.89
13050;BME280;6591;51.446;5.404;2023-04-05T13:01:03;101786.53;;;23.86;23.55
13050;BME280;6591;51.446;5.404;2023-04-05T13:03:30;101787.13;;;23.90;24.01
13050;BME280;6591;51.446;5.404;2023-04-05T13:05:58;101780.63;;;24.02;24.09
13050;BME280;6591;51.446;5.404;2023-04-05T13:08:25;101779.31;;;24.17;24.07
13050;BME280;6591;51.446;5.404;2023-04-05T13:10:53;101777.97;;;24.32;24.00
13050;BME280;6591;51.446;5.404;2023-04-05T13:13:23;101768.91;;;24.53;24.31
13050;BME280;6591;51.446;5.404;2023-04-05T13:15:51;101770.41;;;24.76;23.78
13050;BME280;6591;51.446;5.404;2023-04-05T13:18:18;101771.38;;;24.96;24.14
13050;BME280;6591;51.446;5.404;2023-04-05T13:20:46;101767.69;;;25.16;24.06
13050;BME280;6591;51.446;5.404;2023-04-05T13:23:13;101762.81;;;25.39;23.60
13050;BME280;6591;51.446;5.404;2023-04-05T13:25:42;101769.59;;;25.54;23.14
13050;BME280;6591;51.446;5.404;2023-04-05T13:28:12;101767.13;;;25.70;23.39
13050;BME280;6591;51.446;5.404;2023-04-05T13:30:39;101753.66;;;25.88;23.53
13050;BME280;6591;51.446;5.404;2023-04-05T13:33:06;101749.34;;;26.04;23.45
13050;BME280;6591;51.446;5.404;2023-04-05T13:35:33;101746.97;;;26.29;23.53
13050;BME280;6591;51.446;5.404;2023-04-05T13:38:00;101743.44;;;26.55;23.55
13050;BME280;6591;51.446;5.404;2023-04-05T13:40:31;101735.72;;;26.78;23.06
13050;BME280;6591;51.446;5.404;2023-04-05T13:42:58;101735.94;;;26.94;23.08
13050;BME280;6591;51.446;5.404;2023-04-05T13:45:26;101736.31;;;27.00;22.71
13050;BME280;6591;51.446;5.404;2023-04-05T13:47:54;101737.00;;;27.02;23.03